createdAt,value
2022-12-31T00:01:41.546Z,100051.72
2022-12-31T00:04:09.208Z,100056.38
2022-12-31T00:06:37.556Z,100064.53
2022-12-31T00:09:08.632Z,100052.19
2022-12-31T00:11:37.380Z,100060.91
2022-12-31T00:14:05.805Z,100058.97
2022-12-31T00:16:36.428Z,100067.16
2022-12-31T00:19:06.102Z,100067.19
2022-12-31T00:21:35.179Z,100074.28
2022-12-31T00:24:04.393Z,100075.44
2022-12-31T00:26:35.262Z,100072.66
2022-12-31T00:29:03.842Z,100081.97
2022-12-31T00:31:33.838Z,100087.69
2022-12-31T00:34:02.072Z,100082.22
2022-12-31T00:36:31.865Z,100092.63
2022-12-31T00:39:01.727Z,100093.47
2022-12-31T00:41:30.207Z,100099.50
2022-12-31T00:43:59.463Z,100098.06
2022-12-31T00:46:27.290Z,100092.59
2022-12-31T00:48:55.539Z,100078.97
2022-12-31T00:51:27.226Z,100083.03
2022-12-31T00:53:55.132Z,100093.19
2022-12-31T00:56:24.977Z,100085.53
2022-12-31T00:58:53.312Z,100091.00
2022-12-31T01:01:24.321Z,100100.59
2022-12-31T01:03:55.133Z,100103.91
2022-12-31T01:06:23.329Z,100107.94
2022-12-31T01:08:51.641Z,100122.47
2022-12-31T01:11:22.111Z,100115.63
2022-12-31T01:13:52.429Z,100119.78
2022-12-31T01:16:24.396Z,100122.78
2022-12-31T01:18:52.780Z,100129.59
2022-12-31T01:21:20.928Z,100141.94
2022-12-31T01:23:49.135Z,100138.88
2022-12-31T01:26:19.257Z,100133.44
2022-12-31T01:28:47.583Z,100130.41
2022-12-31T01:31:17.256Z,100136.41
2022-12-31T01:33:46.920Z,100142.47
2022-12-31T01:36:20.364Z,100145.75
2022-12-31T01:38:51.655Z,100135.38
2022-12-31T01:41:21.273Z,100141.31
2022-12-31T01:43:51.368Z,100143.81
2022-12-31T01:46:26.344Z,100156.38
2022-12-31T01:48:59.858Z,100144.34
2022-12-31T01:51:31.332Z,100159.38
2022-12-31T01:54:01.331Z,100151.22
2022-12-31T01:56:29.296Z,100162.09
2022-12-31T01:58:58.567Z,100153.31
2022-12-31T02:01:29.416Z,100148.94
2022-12-31T02:03:58.630Z,100151.13
2022-12-31T02:06:30.872Z,100149.78
2022-12-31T02:08:59.429Z,100148.72
2022-12-31T02:11:29.563Z,100157.38
2022-12-31T02:14:01.502Z,100155.53
2022-12-31T02:16:36.707Z,100161.78
2022-12-31T02:19:27.021Z,100160.44
2022-12-31T02:22:00.039Z,100169.44
2022-12-31T02:24:43.849Z,100175.41
2022-12-31T02:27:17.297Z,100164.53
2022-12-31T02:30:07.659Z,100168.28
2022-12-31T02:32:48.648Z,100166.41
2022-12-31T02:35:22.894Z,100163.09
2022-12-31T02:37:56.654Z,100160.66
2022-12-31T02:40:24.553Z,100151.09
2022-12-31T02:42:55.533Z,100146.75
2022-12-31T02:45:30.680Z,100150.28
2022-12-31T02:48:18.110Z,100140.72
2022-12-31T02:50:58.995Z,100148.88
2022-12-31T02:53:39.716Z,100143.94
2022-12-31T02:56:14.602Z,100146.16
2022-12-31T02:59:08.183Z,100154.00
2022-12-31T03:01:59.931Z,100142.84
2022-12-31T03:04:36.065Z,100148.84
2022-12-31T03:07:06.032Z,100152.38
2022-12-31T03:09:34.309Z,100148.28
2022-12-31T03:12:20.431Z,100150.06
2022-12-31T03:14:48.081Z,100142.69
2022-12-31T03:17:17.120Z,100144.66
2022-12-31T03:20:02.337Z,100148.63
2022-12-31T03:22:30.238Z,100143.94
2022-12-31T03:25:21.008Z,100148.84
2022-12-31T03:27:48.817Z,100152.41
2022-12-31T03:30:18.813Z,100146.06
2022-12-31T03:32:49.025Z,100149.22
2022-12-31T03:35:20.153Z,100141.78
2022-12-31T03:37:50.098Z,100132.00
2022-12-31T03:40:18.888Z,100143.63
2022-12-31T03:42:46.786Z,100145.00
2022-12-31T03:45:14.904Z,100143.63
2022-12-31T03:47:42.753Z,100133.41
2022-12-31T03:50:13.881Z,100134.25
2022-12-31T03:52:41.626Z,100121.44
2022-12-31T03:55:10.753Z,100118.44
2022-12-31T03:57:38.979Z,100120.75
2022-12-31T04:00:09.328Z,100117.81
2022-12-31T04:02:37.541Z,100110.06
2022-12-31T04:05:06.070Z,100104.81
2022-12-31T04:07:35.129Z,100103.38
2022-12-31T04:10:03.079Z,100104.00
2022-12-31T04:12:30.756Z,100105.78
2022-12-31T04:14:58.478Z,100104.19
2022-12-31T04:17:26.960Z,100114.78
2022-12-31T04:19:54.673Z,100115.97
2022-12-31T04:22:22.323Z,100112.50
2022-12-31T04:24:51.400Z,100105.06
2022-12-31T04:27:19.099Z,100108.13
2022-12-31T04:29:46.781Z,100112.31
2022-12-31T04:32:14.475Z,100098.78
2022-12-31T04:34:42.172Z,100102.25
2022-12-31T04:37:09.810Z,100107.63
2022-12-31T04:39:37.479Z,100118.34
2022-12-31T04:42:06.604Z,100121.84
2022-12-31T04:44:35.094Z,100114.75
2022-12-31T04:47:02.873Z,100098.56
2022-12-31T04:49:30.532Z,100097.97
2022-12-31T04:51:58.195Z,100091.34
2022-12-31T04:54:25.867Z,100096.44
2022-12-31T04:56:53.539Z,100086.31
2022-12-31T04:59:22.598Z,100078.94
2022-12-31T05:01:50.509Z,100077.13
2022-12-31T05:04:18.282Z,100068.06
2022-12-31T05:06:45.986Z,100060.91
2022-12-31T05:09:13.780Z,100069.38
2022-12-31T05:11:41.441Z,100071.81
2022-12-31T05:14:09.094Z,100067.47
2022-12-31T05:16:38.211Z,100054.53
2022-12-31T05:19:09.375Z,100055.28
2022-12-31T05:21:37.296Z,100041.84
2022-12-31T05:24:05.557Z,100053.66
2022-12-31T05:26:33.318Z,100055.72
2022-12-31T05:29:01.291Z,100063.66
2022-12-31T05:31:28.942Z,100072.72
2022-12-31T05:33:58.426Z,100066.03
2022-12-31T05:36:26.026Z,100065.59
2022-12-31T05:38:53.722Z,100067.50
2022-12-31T05:41:21.338Z,100068.81
2022-12-31T05:43:49.005Z,100076.31
2022-12-31T05:46:17.077Z,100072.75
2022-12-31T05:48:44.776Z,100070.03
2022-12-31T05:51:13.795Z,100050.44
2022-12-31T05:53:41.427Z,100040.06
2022-12-31T05:56:09.106Z,100024.66
2022-12-31T05:58:36.803Z,100015.91
2022-12-31T06:01:04.506Z,100015.31
2022-12-31T06:03:32.208Z,100021.81
2022-12-31T06:06:02.282Z,100012.94
2022-12-31T06:08:31.298Z,100019.03
2022-12-31T06:10:58.950Z,100007.97
2022-12-31T06:13:26.597Z,99997.00
2022-12-31T06:15:54.394Z,99996.34
2022-12-31T06:18:22.122Z,99994.66
2022-12-31T06:20:49.755Z,99984.56
2022-12-31T06:23:17.481Z,99981.44
2022-12-31T06:25:46.472Z,99984.19
2022-12-31T06:28:20.013Z,99985.00
2022-12-31T06:30:48.388Z,99980.66
2022-12-31T06:33:16.115Z,99985.50
2022-12-31T06:35:43.723Z,99994.63
2022-12-31T06:38:11.442Z,99993.34
2022-12-31T06:40:39.193Z,99992.75
2022-12-31T06:43:08.174Z,99978.25
2022-12-31T06:45:35.892Z,99975.63
2022-12-31T06:48:03.563Z,99983.38
2022-12-31T06:50:31.163Z,99977.06
2022-12-31T06:52:58.820Z,99998.03
2022-12-31T06:55:27.347Z,99994.81
2022-12-31T06:57:55.585Z,100001.31
2022-12-31T07:00:25.303Z,99988.41
2022-12-31T07:03:14.903Z,99988.81
2022-12-31T07:05:48.119Z,99987.44
2022-12-31T07:08:31.341Z,99984.88
2022-12-31T07:11:06.242Z,99989.56
2022-12-31T07:13:53.354Z,99987.81
2022-12-31T07:16:33.363Z,99983.44
2022-12-31T07:19:13.080Z,99979.78
2022-12-31T07:21:42.306Z,99992.41
2022-12-31T07:24:11.926Z,99984.88
2022-12-31T07:26:56.828Z,99978.97
2022-12-31T07:29:38.708Z,99980.47
2022-12-31T07:32:20.303Z,99984.00
2022-12-31T07:34:56.840Z,99981.97
2022-12-31T07:37:36.182Z,100008.97
2022-12-31T07:40:12.277Z,99993.06
2022-12-31T07:42:45.751Z,99992.94
2022-12-31T07:45:19.842Z,99980.69
2022-12-31T07:47:49.571Z,100002.88
2022-12-31T07:50:19.708Z,99996.13
2022-12-31T07:52:47.871Z,100001.53
2022-12-31T07:55:15.754Z,99996.19
2022-12-31T07:57:51.301Z,100018.91
2022-12-31T08:00:19.996Z,100025.41
2022-12-31T08:03:03.633Z,100019.00
2022-12-31T08:05:34.743Z,100011.72
2022-12-31T08:08:13.207Z,100029.38
2022-12-31T08:10:49.543Z,100035.44
2022-12-31T08:13:18.777Z,100022.25
2022-12-31T08:15:46.991Z,100022.03
2022-12-31T08:18:16.467Z,100028.25
2022-12-31T08:20:56.654Z,100046.59
2022-12-31T08:23:30.022Z,100028.94
2022-12-31T08:26:11.970Z,100012.34
2022-12-31T08:28:56.111Z,100023.41
2022-12-31T08:31:29.825Z,100044.47
2022-12-31T08:34:08.320Z,100032.63
2022-12-31T08:36:46.388Z,100039.94
2022-12-31T08:39:24.406Z,100022.97
2022-12-31T08:41:55.992Z,100033.03
2022-12-31T08:44:35.100Z,100048.75
2022-12-31T08:47:15.280Z,100054.56
2022-12-31T08:49:44.870Z,100051.16
2022-12-31T08:52:24.410Z,100039.50
2022-12-31T08:54:53.139Z,100031.31
2022-12-31T08:57:27.859Z,100044.94
2022-12-31T09:00:05.789Z,100035.19
2022-12-31T09:02:57.732Z,100033.41
2022-12-31T09:05:32.644Z,100056.81
2022-12-31T09:08:10.770Z,100034.06
2022-12-31T09:10:43.831Z,100043.81
2022-12-31T09:13:19.146Z,100039.97
2022-12-31T09:15:52.762Z,100042.59
2022-12-31T09:18:20.943Z,100050.59
2022-12-31T09:20:50.514Z,100034.38
2022-12-31T09:23:18.776Z,100041.63
2022-12-31T09:25:56.632Z,100036.31
2022-12-31T09:28:37.848Z,100032.47
2022-12-31T09:31:12.470Z,100041.41
2022-12-31T09:33:47.992Z,100048.28
2022-12-31T09:36:23.336Z,100035.97
2022-12-31T09:39:01.894Z,100036.50
2022-12-31T09:42:03.132Z,100036.00
2022-12-31T09:45:03.068Z,100028.75
2022-12-31T09:47:59.127Z,100047.75
2022-12-31T09:50:55.073Z,100035.75
2022-12-31T09:53:39.509Z,100032.03
2022-12-31T09:56:18.098Z,100039.63
2022-12-31T09:58:56.270Z,100030.56
2022-12-31T10:01:36.737Z,100021.81
2022-12-31T10:04:14.874Z,100022.94
2022-12-31T10:06:52.222Z,100036.44
2022-12-31T10:09:41.629Z,100045.19
2022-12-31T10:12:41.843Z,100042.91
2022-12-31T10:15:33.788Z,100030.91
2022-12-31T10:18:12.621Z,100044.19
2022-12-31T10:20:51.938Z,100026.34
2022-12-31T10:23:46.068Z,100041.28
2022-12-31T10:26:29.065Z,100054.63
2022-12-31T10:29:00.751Z,100056.38
2022-12-31T10:31:39.410Z,100049.09
2022-12-31T10:34:16.189Z,100067.28
2022-12-31T10:36:57.151Z,100055.09
2022-12-31T10:39:43.417Z,100056.38
2022-12-31T10:42:36.727Z,100063.69
2022-12-31T10:45:57.946Z,100071.00
2022-12-31T10:49:06.356Z,100074.56
2022-12-31T10:52:16.773Z,100077.81
2022-12-31T10:55:06.845Z,100074.75
2022-12-31T10:58:04.581Z,100090.16
2022-12-31T11:00:39.501Z,100096.84
2022-12-31T11:03:43.203Z,100110.97
2022-12-31T11:06:39.305Z,100112.41
2022-12-31T11:09:39.679Z,100118.28
2022-12-31T11:12:26.511Z,100109.34
2022-12-31T11:15:17.846Z,100113.09
2022-12-31T11:17:59.179Z,100115.06
2022-12-31T11:20:40.509Z,100104.00
2022-12-31T11:23:22.074Z,100108.06
2022-12-31T11:26:02.184Z,100106.59
2022-12-31T11:29:03.835Z,100099.91
2022-12-31T11:31:49.750Z,100089.50
2022-12-31T11:34:32.981Z,100108.69
2022-12-31T11:37:19.369Z,100099.78
2022-12-31T11:39:54.201Z,100094.88
2022-12-31T11:42:25.807Z,100092.78
2022-12-31T11:45:00.732Z,100095.03
2022-12-31T11:48:20.548Z,100077.97
2022-12-31T11:50:45.738Z,100089.84
2022-12-31T11:53:37.762Z,100083.50
2022-12-31T11:56:15.056Z,100086.75
2022-12-31T11:58:47.827Z,100094.56
2022-12-31T12:01:20.943Z,100085.28
2022-12-31T12:03:50.190Z,100088.81
2022-12-31T12:06:20.739Z,100085.88
2022-12-31T12:08:49.473Z,100099.19
2022-12-31T12:11:21.598Z,100094.16
2022-12-31T12:13:49.495Z,100091.59
2022-12-31T12:16:17.715Z,100097.41
2022-12-31T12:18:47.693Z,100100.66
2022-12-31T12:21:18.949Z,100092.97
2022-12-31T12:23:56.644Z,100117.47
2022-12-31T12:26:30.879Z,100100.81
2022-12-31T12:29:01.914Z,100114.34
2022-12-31T12:31:30.534Z,100112.34
2022-12-31T12:33:58.172Z,100103.94
2022-12-31T12:36:27.219Z,100097.53
2022-12-31T12:39:02.963Z,100106.34
2022-12-31T12:41:30.647Z,100105.69
2022-12-31T12:44:07.121Z,100093.81
2022-12-31T12:46:37.055Z,100114.94
2022-12-31T12:49:05.118Z,100088.72
2022-12-31T12:51:55.287Z,100098.31
2022-12-31T12:54:42.027Z,100097.84
2022-12-31T12:57:19.626Z,100089.06
2022-12-31T13:00:07.544Z,100093.47
2022-12-31T13:03:09.262Z,100086.09
2022-12-31T13:05:48.331Z,100100.78
2022-12-31T13:08:30.032Z,100087.72
2022-12-31T13:11:11.512Z,100090.16
2022-12-31T13:13:48.266Z,100093.41
2022-12-31T13:16:23.796Z,100091.78
2022-12-31T13:19:00.112Z,100107.94
2022-12-31T13:21:45.349Z,100108.22
2022-12-31T13:24:24.006Z,100110.19
2022-12-31T13:27:00.255Z,100125.28
2022-12-31T13:29:32.177Z,100121.06
2022-12-31T13:32:03.350Z,100110.81
2022-12-31T13:34:33.818Z,100125.91
2022-12-31T13:37:07.776Z,100131.34
2022-12-31T13:39:42.787Z,100126.38
2022-12-31T13:42:17.652Z,100150.63
2022-12-31T13:44:52.426Z,100132.28
2022-12-31T13:47:28.775Z,100124.41
2022-12-31T13:50:00.401Z,100113.44
2022-12-31T13:52:31.658Z,100136.75
2022-12-31T13:55:10.360Z,100160.53
2022-12-31T13:57:43.205Z,100147.97
2022-12-31T14:00:20.949Z,100156.28
2022-12-31T14:02:56.722Z,100164.13
2022-12-31T14:05:31.068Z,100171.91
2022-12-31T14:08:01.650Z,100173.06
2022-12-31T14:10:36.741Z,100195.69
2022-12-31T14:13:17.671Z,100213.44
2022-12-31T14:15:58.090Z,100222.91
2022-12-31T14:18:33.996Z,100250.97
2022-12-31T14:21:10.252Z,100220.22
2022-12-31T14:23:47.433Z,100215.19
2022-12-31T14:26:27.362Z,100214.88
2022-12-31T14:29:07.279Z,100230.81
2022-12-31T14:31:56.599Z,100239.91
2022-12-31T14:34:34.083Z,100235.22
2022-12-31T14:37:08.613Z,100239.50
2022-12-31T14:39:49.492Z,100230.38
2022-12-31T14:42:30.768Z,100255.38
2022-12-31T14:45:16.290Z,100252.13
2022-12-31T14:47:51.254Z,100256.25
2022-12-31T14:50:23.494Z,100257.69
2022-12-31T14:52:53.954Z,100257.22
2022-12-31T14:55:27.454Z,100255.91
2022-12-31T15:00:55.212Z,100267.63
2022-12-31T15:03:34.316Z,100271.69
2022-12-31T15:06:12.924Z,100278.56
2022-12-31T15:08:50.244Z,100276.47
2022-12-31T15:11:32.025Z,100272.09
2022-12-31T15:14:37.222Z,100287.72
2022-12-31T15:17:16.372Z,100290.47
2022-12-31T15:20:17.645Z,100289.50
2022-12-31T15:22:47.537Z,100286.25
2022-12-31T15:25:36.795Z,100275.53
2022-12-31T15:28:22.811Z,100275.53
2022-12-31T15:30:53.151Z,100275.84
2022-12-31T15:33:28.981Z,100286.59
2022-12-31T15:35:58.360Z,100292.28
2022-12-31T15:38:35.493Z,100298.78
2022-12-31T15:41:16.874Z,100299.09
2022-12-31T15:43:49.492Z,100290.34
2022-12-31T15:46:22.200Z,100295.69
2022-12-31T15:48:55.428Z,100291.16
2022-12-31T15:51:30.431Z,100290.69
2022-12-31T15:54:00.749Z,100291.31
2022-12-31T15:56:34.394Z,100290.50
2022-12-31T15:59:05.627Z,100281.91
2022-12-31T16:01:37.017Z,100281.53
2022-12-31T16:04:08.708Z,100291.97
2022-12-31T16:06:38.515Z,100288.88
2022-12-31T16:09:10.795Z,100298.31
2022-12-31T16:11:41.645Z,100300.59
2022-12-31T16:14:18.441Z,100297.84
2022-12-31T16:16:55.111Z,100311.81
2022-12-31T16:19:29.435Z,100312.81
2022-12-31T16:22:01.609Z,100301.88
2022-12-31T16:24:31.107Z,100305.31
2022-12-31T16:27:02.206Z,100307.91
2022-12-31T16:29:30.769Z,100311.97
2022-12-31T16:31:59.843Z,100303.03
2022-12-31T16:34:28.773Z,100308.06
2022-12-31T16:36:58.902Z,100307.25
2022-12-31T16:39:29.791Z,100323.19
2022-12-31T16:42:18.541Z,100321.91
2022-12-31T16:44:46.764Z,100313.94
2022-12-31T16:47:21.665Z,100327.59
2022-12-31T16:49:56.522Z,100323.38
2022-12-31T16:52:29.202Z,100320.44
2022-12-31T16:54:58.139Z,100314.44
2022-12-31T16:57:28.278Z,100318.47
2022-12-31T16:59:59.319Z,100315.56
2022-12-31T17:02:35.090Z,100317.50
2022-12-31T17:05:03.117Z,100300.25
2022-12-31T17:07:41.790Z,100312.63
2022-12-31T17:10:19.343Z,100324.03
2022-12-31T17:15:41.646Z,100319.81
2022-12-31T17:18:18.388Z,100334.75
2022-12-31T17:20:46.232Z,100322.72
2022-12-31T17:23:23.731Z,100330.69
2022-12-31T17:25:58.864Z,100309.81
2022-12-31T17:28:27.978Z,100332.16
2022-12-31T17:31:01.024Z,100339.00
2022-12-31T17:33:32.064Z,100350.19
2022-12-31T17:36:16.137Z,100363.56
2022-12-31T17:38:44.107Z,100359.63
2022-12-31T17:41:24.356Z,100352.00
2022-12-31T17:43:55.121Z,100354.44
2022-12-31T17:46:24.241Z,100349.38
2022-12-31T17:48:57.308Z,100354.09
2022-12-31T17:51:25.002Z,100352.00
2022-12-31T17:53:52.675Z,100368.44
2022-12-31T17:56:21.505Z,100368.59
2022-12-31T17:58:52.585Z,100371.19
2022-12-31T18:01:22.556Z,100358.84
2022-12-31T18:03:50.616Z,100346.94
2022-12-31T18:06:20.197Z,100343.03
2022-12-31T18:08:47.981Z,100345.16
2022-12-31T18:11:18.798Z,100377.22
2022-12-31T18:13:47.040Z,100344.00
2022-12-31T18:16:15.367Z,100351.81
2022-12-31T18:18:45.134Z,100360.78
2022-12-31T18:21:21.009Z,100358.34
2022-12-31T18:23:49.913Z,100349.72
2022-12-31T18:26:19.798Z,100361.44
2022-12-31T18:28:48.160Z,100364.72
2022-12-31T18:31:20.011Z,100357.88
2022-12-31T18:33:48.460Z,100365.06
2022-12-31T18:36:20.118Z,100365.53
2022-12-31T18:38:48.379Z,100370.72
2022-12-31T18:41:18.840Z,100379.56
2022-12-31T18:43:46.297Z,100369.94
2022-12-31T18:46:15.104Z,100377.41
2022-12-31T18:48:43.021Z,100363.91
2022-12-31T18:51:15.034Z,100369.28
2022-12-31T18:53:44.582Z,100370.75
2022-12-31T18:56:13.874Z,100366.03
2022-12-31T18:58:42.195Z,100368.31
2022-12-31T19:01:26.403Z,100368.44
2022-12-31T19:03:54.975Z,100367.97
2022-12-31T19:06:22.837Z,100381.78
2022-12-31T19:08:52.173Z,100378.19
2022-12-31T19:11:20.201Z,100369.56
2022-12-31T19:13:48.017Z,100370.03
2022-12-31T19:16:15.689Z,100362.56
2022-12-31T19:18:43.337Z,100369.41
2022-12-31T19:21:16.496Z,100363.88
2022-12-31T19:23:44.157Z,100366.28
2022-12-31T19:26:16.319Z,100376.69
2022-12-31T19:28:46.130Z,100372.28
2022-12-31T19:31:14.400Z,100369.84
2022-12-31T19:33:42.405Z,100360.88
2022-12-31T19:36:15.515Z,100363.34
2022-12-31T19:38:44.259Z,100364.00
2022-12-31T19:41:18.639Z,100362.03
2022-12-31T19:43:46.710Z,100366.25
2022-12-31T19:46:15.330Z,100354.06
2022-12-31T19:48:43.608Z,100364.97
2022-12-31T19:51:16.524Z,100346.41
2022-12-31T19:53:44.694Z,100348.88
2022-12-31T19:56:14.003Z,100341.72
2022-12-31T19:58:43.086Z,100347.22
2022-12-31T20:01:19.509Z,100360.88
2022-12-31T20:03:47.484Z,100357.00
2022-12-31T20:06:15.876Z,100350.16
2022-12-31T20:08:44.241Z,100349.66
2022-12-31T20:11:14.163Z,100349.31
2022-12-31T20:13:43.855Z,100356.47
2022-12-31T20:16:13.187Z,100364.00
2022-12-31T20:18:42.347Z,100378.78
2022-12-31T20:21:11.762Z,100380.59
2022-12-31T20:23:39.474Z,100374.06
2022-12-31T20:26:07.440Z,100373.44
2022-12-31T20:28:36.200Z,100364.44
2022-12-31T20:31:07.769Z,100372.41
2022-12-31T20:33:35.727Z,100372.75
2022-12-31T20:36:04.152Z,100372.28
2022-12-31T20:38:32.211Z,100368.66
2022-12-31T20:41:04.228Z,100380.72
2022-12-31T20:43:32.510Z,100386.09
2022-12-31T20:46:00.393Z,100395.81
2022-12-31T20:48:29.397Z,100382.66
2022-12-31T20:50:57.685Z,100383.84
2022-12-31T20:53:25.462Z,100374.41
2022-12-31T20:55:53.133Z,100378.94
2022-12-31T20:58:20.949Z,100372.78
2022-12-31T21:00:50.021Z,100377.00
2022-12-31T21:03:37.298Z,100373.09
2022-12-31T21:06:07.998Z,100378.31
2022-12-31T21:08:36.052Z,100374.84
2022-12-31T21:11:24.546Z,100381.72
2022-12-31T21:13:51.504Z,100383.88
2022-12-31T21:16:19.479Z,100365.94
2022-12-31T21:18:47.207Z,100379.78
2022-12-31T21:21:16.257Z,100384.34
2022-12-31T21:23:43.980Z,100390.84
2022-12-31T21:26:11.644Z,100397.03
2022-12-31T21:28:39.391Z,100397.16
2022-12-31T21:31:08.765Z,100371.19
2022-12-31T21:33:36.552Z,100383.53
2022-12-31T21:36:05.071Z,100391.97
2022-12-31T21:38:37.004Z,100385.47
2022-12-31T21:41:05.640Z,100389.53
2022-12-31T21:43:33.281Z,100398.81
2022-12-31T21:46:02.542Z,100391.50
2022-12-31T21:48:30.315Z,100405.97
2022-12-31T21:51:07.867Z,100400.94
2022-12-31T21:53:37.703Z,100403.88
2022-12-31T21:56:08.446Z,100411.03
2022-12-31T21:58:36.503Z,100418.22
2022-12-31T22:01:22.164Z,100428.97
2022-12-31T22:03:49.948Z,100425.22
2022-12-31T22:06:21.554Z,100432.88
2022-12-31T22:08:52.021Z,100410.09
2022-12-31T22:11:20.608Z,100416.41
2022-12-31T22:13:48.997Z,100407.13
2022-12-31T22:16:17.191Z,100408.13
2022-12-31T22:18:45.162Z,100409.41
2022-12-31T22:21:18.982Z,100431.06
2022-12-31T22:23:48.851Z,100442.59
2022-12-31T22:26:21.136Z,100439.97
2022-12-31T22:28:49.033Z,100443.06
2022-12-31T22:31:19.048Z,100437.91
2022-12-31T22:33:47.055Z,100440.28
2022-12-31T22:36:16.434Z,100453.13
2022-12-31T22:38:44.421Z,100448.91
2022-12-31T22:41:14.091Z,100439.13
2022-12-31T22:43:45.541Z,100446.94
2022-12-31T22:46:14.957Z,100465.59
2022-12-31T22:48:43.235Z,100447.22
2022-12-31T22:51:12.065Z,100458.59
2022-12-31T22:53:41.131Z,100461.06
2022-12-31T22:56:09.289Z,100461.06
2022-12-31T22:58:37.312Z,100475.66
2022-12-31T23:01:07.481Z,100475.19
2022-12-31T23:03:35.474Z,100481.22
2022-12-31T23:06:03.229Z,100481.88
2022-12-31T23:08:30.903Z,100460.41
2022-12-31T23:11:05.411Z,100450.81
2022-12-31T23:13:55.642Z,100469.38
2022-12-31T23:16:44.132Z,100478.59
2022-12-31T23:19:29.850Z,100479.91
2022-12-31T23:22:15.159Z,100470.78
2022-12-31T23:24:43.153Z,100474.56
2022-12-31T23:27:11.505Z,100467.19
2022-12-31T23:29:46.522Z,100473.88
2022-12-31T23:32:16.755Z,100484.59
2022-12-31T23:34:45.170Z,100471.63
2022-12-31T23:37:13.127Z,100472.56
2022-12-31T23:39:40.746Z,100473.84
2022-12-31T23:42:08.658Z,100475.66
2022-12-31T23:44:36.316Z,100484.59
2022-12-31T23:47:04.129Z,100490.13
2022-12-31T23:49:33.230Z,100495.81
2022-12-31T23:52:00.865Z,100477.16
2022-12-31T23:54:29.197Z,100487.03
2022-12-31T23:56:56.998Z,100493.38
2022-12-31T23:59:24.651Z,100497.28
